sensor_id;sensor_type;location;lat;lon;timestamp;P1;durP1;ratioP1;P2;durP2;ratioP2
3547;SDS011;1788;49.400;11.092;2023-04-15T00:01:46;8.87;;;6.23;;
3547;SDS011;1788;49.400;11.092;2023-04-15T00:04:12;10.10;;;7.00;;
3547;SDS011;1788;49.400;11.092;2023-04-15T00:06:39;6.57;;;6.17;;
3547;SDS011;1788;49.400;11.092;2023-04-15T00:09:06;9.33;;;6.87;;
3547;SDS011;1788;49.400;11.092;2023-04-15T00:11:33;9.07;;;7.13;;
3547;SDS011;1788;49.400;11.092;2023-04-15T00:13:59;13.47;;;7.80;;
3547;SDS011;1788;49.400;11.092;2023-04-15T00:16:26;11.47;;;7.03;;
3547;SDS011;1788;49.400;11.092;2023-04-15T00:18:52;10.50;;;6.53;;
3547;SDS011;1788;49.400;11.092;2023-04-15T00:21:19;7.87;;;7.07;;
3547;SDS011;1788;49.400;11.092;2023-04-15T00:23:46;11.33;;;7.67;;
3547;SDS011;1788;49.400;11.092;2023-04-15T00:26:12;7.83;;;6.33;;
3547;SDS011;1788;49.400;11.092;2023-04-15T00:28:39;7.47;;;6.53;;
3547;SDS011;1788;49.400;11.092;2023-04-15T00:31:06;8.93;;;6.63;;
3547;SDS011;1788;49.400;11.092;2023-04-15T00:33:32;9.03;;;6.53;;
3547;SDS011;1788;49.400;11.092;2023-04-15T00:35:59;12.07;;;7.67;;
3547;SDS011;1788;49.400;11.092;2023-04-15T00:38:27;9.23;;;6.27;;
3547;SDS011;1788;49.400;11.092;2023-04-15T00:40:54;10.03;;;6.50;;
3547;SDS011;1788;49.400;11.092;2023-04-15T00:43:20;6.60;;;5.03;;
3547;SDS011;1788;49.400;11.092;2023-04-15T00:45:47;8.27;;;6.13;;
3547;SDS011;1788;49.400;11.092;2023-04-15T00:48:13;6.10;;;5.43;;
3547;SDS011;1788;49.400;11.092;2023-04-15T00:50:40;7.93;;;6.10;;
3547;SDS011;1788;49.400;11.092;2023-04-15T00:53:07;8.93;;;6.30;;
3547;SDS011;1788;49.400;11.092;2023-04-15T00:55:33;7.80;;;6.07;;
3547;SDS011;1788;49.400;11.092;2023-04-15T00:58:00;7.50;;;5.33;;
3547;SDS011;1788;49.400;11.092;2023-04-15T01:00:29;10.47;;;6.47;;
3547;SDS011;1788;49.400;11.092;2023-04-15T01:02:55;6.80;;;6.30;;
3547;SDS011;1788;49.400;11.092;2023-04-15T01:05:22;6.80;;;5.93;;
3547;SDS011;1788;49.400;11.092;2023-04-15T01:07:48;8.63;;;6.53;;
3547;SDS011;1788;49.400;11.092;2023-04-15T01:10:15;8.20;;;5.60;;
3547;SDS011;1788;49.400;11.092;2023-04-15T01:12:42;7.17;;;5.90;;
3547;SDS011;1788;49.400;11.092;2023-04-15T01:15:08;8.67;;;5.93;;
3547;SDS011;1788;49.400;11.092;2023-04-15T01:17:35;7.97;;;6.50;;
3547;SDS011;1788;49.400;11.092;2023-04-15T01:20:02;7.37;;;5.90;;
3547;SDS011;1788;49.400;11.092;2023-04-15T01:22:28;5.50;;;5.20;;
3547;SDS011;1788;49.400;11.092;2023-04-15T01:25:00;6.60;;;5.67;;
3547;SDS011;1788;49.400;11.092;2023-04-15T01:27:22;7.13;;;5.73;;
3547;SDS011;1788;49.400;11.092;2023-04-15T01:29:49;8.30;;;5.77;;
3547;SDS011;1788;49.400;11.092;2023-04-15T01:32:15;8.73;;;5.90;;
3547;SDS011;1788;49.400;11.092;2023-04-15T01:34:42;6.20;;;5.20;;
3547;SDS011;1788;49.400;11.092;2023-04-15T01:37:09;8.03;;;5.50;;
3547;SDS011;1788;49.400;11.092;2023-04-15T01:39:36;8.30;;;6.10;;
3547;SDS011;1788;49.400;11.092;2023-04-15T01:42:02;7.73;;;6.23;;
3547;SDS011;1788;49.400;11.092;2023-04-15T01:44:29;9.07;;;5.37;;
3547;SDS011;1788;49.400;11.092;2023-04-15T01:46:55;5.90;;;5.20;;
3547;SDS011;1788;49.400;11.092;2023-04-15T01:49:22;7.73;;;5.93;;
3547;SDS011;1788;49.400;11.092;2023-04-15T01:51:49;7.17;;;5.07;;
3547;SDS011;1788;49.400;11.092;2023-04-15T01:54:16;6.50;;;5.47;;
3547;SDS011;1788;49.400;11.092;2023-04-15T01:56:43;6.87;;;5.33;;
3547;SDS011;1788;49.400;11.092;2023-04-15T01:59:09;6.40;;;5.13;;
3547;SDS011;1788;49.400;11.092;2023-04-15T02:01:36;7.33;;;5.30;;
3547;SDS011;1788;49.400;11.092;2023-04-15T02:04:03;5.90;;;5.30;;
3547;SDS011;1788;49.400;11.092;2023-04-15T02:06:29;8.77;;;5.70;;
3547;SDS011;1788;49.400;11.092;2023-04-15T02:08:56;6.63;;;5.50;;
3547;SDS011;1788;49.400;11.092;2023-04-15T02:11:22;6.10;;;5.30;;
3547;SDS011;1788;49.400;11.092;2023-04-15T02:13:49;6.13;;;5.33;;
3547;SDS011;1788;49.400;11.092;2023-04-15T02:16:16;5.70;;;4.70;;
3547;SDS011;1788;49.400;11.092;2023-04-15T02:18:43;10.47;;;5.40;;
3547;SDS011;1788;49.400;11.092;2023-04-15T02:21:09;6.70;;;5.53;;
3547;SDS011;1788;49.400;11.092;2023-04-15T02:23:36;6.63;;;5.37;;
3547;SDS011;1788;49.400;11.092;2023-04-15T02:26:03;5.93;;;5.13;;
3547;SDS011;1788;49.400;11.092;2023-04-15T02:28:29;5.73;;;5.43;;
3547;SDS011;1788;49.400;11.092;2023-04-15T02:30:56;7.13;;;5.90;;
3547;SDS011;1788;49.400;11.092;2023-04-15T02:33:23;7.20;;;5.30;;
3547;SDS011;1788;49.400;11.092;2023-04-15T02:35:49;9.33;;;5.57;;
3547;SDS011;1788;49.400;11.092;2023-04-15T02:38:17;5.70;;;5.40;;
3547;SDS011;1788;49.400;11.092;2023-04-15T02:40:43;6.30;;;4.87;;
3547;SDS011;1788;49.400;11.092;2023-04-15T02:43:10;7.43;;;5.13;;
3547;SDS011;1788;49.400;11.092;2023-04-15T02:45:37;8.17;;;5.50;;
3547;SDS011;1788;49.400;11.092;2023-04-15T02:48:04;6.33;;;5.07;;
3547;SDS011;1788;49.400;11.092;2023-04-15T02:50:30;6.10;;;5.07;;
3547;SDS011;1788;49.400;11.092;2023-04-15T02:52:57;7.40;;;5.57;;
3547;SDS011;1788;49.400;11.092;2023-04-15T02:55:24;6.00;;;5.07;;
3547;SDS011;1788;49.400;11.092;2023-04-15T02:57:51;6.27;;;5.60;;
3547;SDS011;1788;49.400;11.092;2023-04-15T03:00:18;10.87;;;7.17;;
3547;SDS011;1788;49.400;11.092;2023-04-15T03:02:45;7.43;;;5.33;;
3547;SDS011;1788;49.400;11.092;2023-04-15T03:05:13;6.07;;;5.17;;
3547;SDS011;1788;49.400;11.092;2023-04-15T03:07:39;7.93;;;5.93;;
3547;SDS011;1788;49.400;11.092;2023-04-15T03:10:06;7.50;;;5.23;;
3547;SDS011;1788;49.400;11.092;2023-04-15T03:12:33;7.23;;;4.63;;
3547;SDS011;1788;49.400;11.092;2023-04-15T03:14:59;6.43;;;5.13;;
3547;SDS011;1788;49.400;11.092;2023-04-15T03:17:26;7.07;;;5.60;;
3547;SDS011;1788;49.400;11.092;2023-04-15T03:19:53;9.63;;;5.57;;
3547;SDS011;1788;49.400;11.092;2023-04-15T03:22:20;7.97;;;5.17;;
3547;SDS011;1788;49.400;11.092;2023-04-15T03:24:47;6.33;;;5.27;;
3547;SDS011;1788;49.400;11.092;2023-04-15T03:27:15;7.90;;;5.77;;
3547;SDS011;1788;49.400;11.092;2023-04-15T03:29:41;7.67;;;5.20;;
3547;SDS011;1788;49.400;11.092;2023-04-15T03:32:08;6.27;;;5.53;;
3547;SDS011;1788;49.400;11.092;2023-04-15T03:34:35;8.27;;;5.10;;
3547;SDS011;1788;49.400;11.092;2023-04-15T03:37:02;5.23;;;4.97;;
3547;SDS011;1788;49.400;11.092;2023-04-15T03:39:29;7.83;;;5.57;;
3547;SDS011;1788;49.400;11.092;2023-04-15T03:41:56;5.00;;;4.67;;
3547;SDS011;1788;49.400;11.092;2023-04-15T03:44:25;6.70;;;5.20;;
3547;SDS011;1788;49.400;11.092;2023-04-15T03:46:50;6.30;;;5.10;;
3547;SDS011;1788;49.400;11.092;2023-04-15T03:49:17;6.43;;;4.87;;
3547;SDS011;1788;49.400;11.092;2023-04-15T03:51:44;5.13;;;4.73;;
3547;SDS011;1788;49.400;11.092;2023-04-15T03:54:11;7.30;;;5.07;;
3547;SDS011;1788;49.400;11.092;2023-04-15T03:56:38;5.97;;;4.93;;
3547;SDS011;1788;49.400;11.092;2023-04-15T03:59:04;8.47;;;5.50;;
3547;SDS011;1788;49.400;11.092;2023-04-15T04:01:31;7.37;;;5.10;;
3547;SDS011;1788;49.400;11.092;2023-04-15T04:03:57;6.77;;;5.00;;
3547;SDS011;1788;49.400;11.092;2023-04-15T04:06:24;7.27;;;5.23;;
3547;SDS011;1788;49.400;11.092;2023-04-15T04:08:51;6.57;;;5.63;;
3547;SDS011;1788;49.400;11.092;2023-04-15T04:11:18;7.63;;;5.70;;
3547;SDS011;1788;49.400;11.092;2023-04-15T04:13:45;7.37;;;5.63;;
3547;SDS011;1788;49.400;11.092;2023-04-15T04:16:11;5.17;;;4.83;;
3547;SDS011;1788;49.400;11.092;2023-04-15T04:18:38;11.70;;;5.77;;
3547;SDS011;1788;49.400;11.092;2023-04-15T04:21:04;10.57;;;5.97;;
3547;SDS011;1788;49.400;11.092;2023-04-15T04:23:32;6.00;;;5.10;;
3547;SDS011;1788;49.400;11.092;2023-04-15T04:25:58;9.30;;;5.93;;
3547;SDS011;1788;49.400;11.092;2023-04-15T04:28:25;7.73;;;5.93;;
3547;SDS011;1788;49.400;11.092;2023-04-15T04:30:52;6.13;;;5.40;;
3547;SDS011;1788;49.400;11.092;2023-04-15T04:33:18;6.33;;;5.30;;
3547;SDS011;1788;49.400;11.092;2023-04-15T04:35:46;9.37;;;6.30;;
3547;SDS011;1788;49.400;11.092;2023-04-15T04:38:12;6.87;;;4.93;;
3547;SDS011;1788;49.400;11.092;2023-04-15T04:40:40;7.40;;;6.30;;
3547;SDS011;1788;49.400;11.092;2023-04-15T04:43:07;7.13;;;5.70;;
3547;SDS011;1788;49.400;11.092;2023-04-15T04:45:33;6.93;;;5.43;;
3547;SDS011;1788;49.400;11.092;2023-04-15T04:48:01;7.00;;;5.33;;
3547;SDS011;1788;49.400;11.092;2023-04-15T04:50:27;9.40;;;5.70;;
3547;SDS011;1788;49.400;11.092;2023-04-15T04:52:55;9.43;;;6.17;;
3547;SDS011;1788;49.400;11.092;2023-04-15T04:55:21;8.70;;;6.07;;
3547;SDS011;1788;49.400;11.092;2023-04-15T04:57:48;9.70;;;6.33;;
3547;SDS011;1788;49.400;11.092;2023-04-15T05:00:14;7.57;;;5.77;;
3547;SDS011;1788;49.400;11.092;2023-04-15T05:02:41;8.97;;;6.13;;
3547;SDS011;1788;49.400;11.092;2023-04-15T05:05:08;10.10;;;6.40;;
3547;SDS011;1788;49.400;11.092;2023-04-15T05:07:34;6.70;;;6.27;;
3547;SDS011;1788;49.400;11.092;2023-04-15T05:10:01;9.00;;;5.93;;
3547;SDS011;1788;49.400;11.092;2023-04-15T05:12:29;8.20;;;6.03;;
3547;SDS011;1788;49.400;11.092;2023-04-15T05:14:55;5.17;;;4.87;;
3547;SDS011;1788;49.400;11.092;2023-04-15T05:17:23;8.40;;;5.63;;
3547;SDS011;1788;49.400;11.092;2023-04-15T05:19:50;9.17;;;6.43;;
3547;SDS011;1788;49.400;11.092;2023-04-15T05:22:17;6.60;;;5.67;;
3547;SDS011;1788;49.400;11.092;2023-04-15T05:24:43;7.47;;;6.13;;
3547;SDS011;1788;49.400;11.092;2023-04-15T05:27:10;8.53;;;6.30;;
3547;SDS011;1788;49.400;11.092;2023-04-15T05:29:37;8.40;;;5.97;;
3547;SDS011;1788;49.400;11.092;2023-04-15T05:32:04;8.53;;;5.80;;
3547;SDS011;1788;49.400;11.092;2023-04-15T05:34:32;7.90;;;5.80;;
3547;SDS011;1788;49.400;11.092;2023-04-15T05:36:59;9.20;;;5.80;;
3547;SDS011;1788;49.400;11.092;2023-04-15T05:39:26;8.67;;;6.10;;
3547;SDS011;1788;49.400;11.092;2023-04-15T05:41:54;9.03;;;6.37;;
3547;SDS011;1788;49.400;11.092;2023-04-15T05:44:22;8.00;;;5.60;;
3547;SDS011;1788;49.400;11.092;2023-04-15T05:46:51;9.60;;;6.13;;
3547;SDS011;1788;49.400;11.092;2023-04-15T05:49:19;11.03;;;6.90;;
3547;SDS011;1788;49.400;11.092;2023-04-15T05:51:47;7.70;;;6.23;;
3547;SDS011;1788;49.400;11.092;2023-04-15T05:54:13;7.90;;;6.87;;
3547;SDS011;1788;49.400;11.092;2023-04-15T05:56:40;9.70;;;7.33;;
3547;SDS011;1788;49.400;11.092;2023-04-15T05:59:07;11.27;;;7.57;;
3547;SDS011;1788;49.400;11.092;2023-04-15T06:01:34;9.83;;;6.33;;
3547;SDS011;1788;49.400;11.092;2023-04-15T06:04:00;9.37;;;6.47;;
3547;SDS011;1788;49.400;11.092;2023-04-15T06:06:27;8.23;;;5.97;;
3547;SDS011;1788;49.400;11.092;2023-04-15T06:08:55;8.80;;;7.10;;
3547;SDS011;1788;49.400;11.092;2023-04-15T06:11:21;11.43;;;6.40;;
3547;SDS011;1788;49.400;11.092;2023-04-15T06:13:48;7.27;;;6.27;;
3547;SDS011;1788;49.400;11.092;2023-04-15T06:16:15;9.90;;;5.03;;
3547;SDS011;1788;49.400;11.092;2023-04-15T06:18:41;7.57;;;6.90;;
3547;SDS011;1788;49.400;11.092;2023-04-15T06:21:08;7.63;;;6.47;;
3547;SDS011;1788;49.400;11.092;2023-04-15T06:23:35;10.57;;;6.80;;
3547;SDS011;1788;49.400;11.092;2023-04-15T06:26:01;8.37;;;6.00;;
3547;SDS011;1788;49.400;11.092;2023-04-15T06:28:28;8.97;;;6.20;;
3547;SDS011;1788;49.400;11.092;2023-04-15T06:30:55;7.80;;;6.20;;
3547;SDS011;1788;49.400;11.092;2023-04-15T06:33:22;9.53;;;6.80;;
3547;SDS011;1788;49.400;11.092;2023-04-15T06:35:48;6.40;;;5.90;;
3547;SDS011;1788;49.400;11.092;2023-04-15T06:38:15;8.57;;;6.43;;
3547;SDS011;1788;49.400;11.092;2023-04-15T06:40:42;7.13;;;5.93;;
3547;SDS011;1788;49.400;11.092;2023-04-15T06:43:08;9.00;;;6.27;;
3547;SDS011;1788;49.400;11.092;2023-04-15T06:45:35;10.47;;;7.70;;
3547;SDS011;1788;49.400;11.092;2023-04-15T06:48:02;11.80;;;7.27;;
3547;SDS011;1788;49.400;11.092;2023-04-15T06:50:28;12.60;;;7.60;;
3547;SDS011;1788;49.400;11.092;2023-04-15T06:52:55;11.37;;;7.47;;
3547;SDS011;1788;49.400;11.092;2023-04-15T06:55:22;9.63;;;7.03;;
3547;SDS011;1788;49.400;11.092;2023-04-15T06:57:48;11.07;;;6.93;;
3547;SDS011;1788;49.400;11.092;2023-04-15T07:00:15;8.17;;;6.60;;
3547;SDS011;1788;49.400;11.092;2023-04-15T07:02:41;9.93;;;6.73;;
3547;SDS011;1788;49.400;11.092;2023-04-15T07:05:08;9.27;;;7.17;;
3547;SDS011;1788;49.400;11.092;2023-04-15T07:07:35;11.13;;;8.03;;
3547;SDS011;1788;49.400;11.092;2023-04-15T07:10:01;9.30;;;7.73;;
3547;SDS011;1788;49.400;11.092;2023-04-15T07:12:28;8.03;;;6.50;;
3547;SDS011;1788;49.400;11.092;2023-04-15T07:14:55;8.20;;;6.03;;
3547;SDS011;1788;49.400;11.092;2023-04-15T07:17:23;10.87;;;7.00;;
3547;SDS011;1788;49.400;11.092;2023-04-15T07:19:50;9.97;;;6.60;;
3547;SDS011;1788;49.400;11.092;2023-04-15T07:22:18;8.67;;;6.27;;
3547;SDS011;1788;49.400;11.092;2023-04-15T07:24:46;9.03;;;6.97;;
3547;SDS011;1788;49.400;11.092;2023-04-15T07:27:12;10.23;;;6.17;;
3547;SDS011;1788;49.400;11.092;2023-04-15T07:29:39;12.33;;;7.03;;
3547;SDS011;1788;49.400;11.092;2023-04-15T07:32:06;10.50;;;6.70;;
3547;SDS011;1788;49.400;11.092;2023-04-15T07:34:32;9.83;;;6.80;;
3547;SDS011;1788;49.400;11.092;2023-04-15T07:36:59;8.90;;;6.60;;
3547;SDS011;1788;49.400;11.092;2023-04-15T07:39:25;10.13;;;7.40;;
3547;SDS011;1788;49.400;11.092;2023-04-15T07:41:52;9.37;;;7.13;;
3547;SDS011;1788;49.400;11.092;2023-04-15T07:44:19;10.13;;;6.93;;
3547;SDS011;1788;49.400;11.092;2023-04-15T07:46:46;7.37;;;6.27;;
3547;SDS011;1788;49.400;11.092;2023-04-15T07:49:13;5.80;;;5.50;;
3547;SDS011;1788;49.400;11.092;2023-04-15T07:51:40;7.90;;;6.03;;
3547;SDS011;1788;49.400;11.092;2023-04-15T07:54:07;7.40;;;5.87;;
3547;SDS011;1788;49.400;11.092;2023-04-15T07:56:34;6.87;;;5.20;;
3547;SDS011;1788;49.400;11.092;2023-04-15T07:59:01;6.07;;;5.10;;
3547;SDS011;1788;49.400;11.092;2023-04-15T08:01:28;11.03;;;5.00;;
3547;SDS011;1788;49.400;11.092;2023-04-15T08:03:55;6.47;;;4.90;;
3547;SDS011;1788;49.400;11.092;2023-04-15T08:06:22;4.67;;;4.37;;
3547;SDS011;1788;49.400;11.092;2023-04-15T08:08:49;5.83;;;5.10;;
3547;SDS011;1788;49.400;11.092;2023-04-15T08:11:15;9.00;;;5.17;;
3547;SDS011;1788;49.400;11.092;2023-04-15T08:13:42;7.37;;;4.20;;
3547;SDS011;1788;49.400;11.092;2023-04-15T08:18:35;7.53;;;4.57;;
3547;SDS011;1788;49.400;11.092;2023-04-15T08:21:02;5.83;;;3.80;;
3547;SDS011;1788;49.400;11.092;2023-04-15T08:23:28;8.23;;;4.50;;
3547;SDS011;1788;49.400;11.092;2023-04-15T08:25:56;8.57;;;5.23;;
3547;SDS011;1788;49.400;11.092;2023-04-15T08:28:22;6.47;;;4.60;;
3547;SDS011;1788;49.400;11.092;2023-04-15T08:30:49;6.33;;;4.83;;
3547;SDS011;1788;49.400;11.092;2023-04-15T08:33:15;5.90;;;4.37;;
3547;SDS011;1788;49.400;11.092;2023-04-15T08:35:42;11.10;;;4.93;;
3547;SDS011;1788;49.400;11.092;2023-04-15T08:38:09;6.07;;;4.83;;
3547;SDS011;1788;49.400;11.092;2023-04-15T08:40:40;4.53;;;4.23;;
3547;SDS011;1788;49.400;11.092;2023-04-15T08:43:02;5.23;;;4.17;;
3547;SDS011;1788;49.400;11.092;2023-04-15T08:45:29;4.33;;;3.40;;
3547;SDS011;1788;49.400;11.092;2023-04-15T08:47:56;3.00;;;2.77;;
3547;SDS011;1788;49.400;11.092;2023-04-15T08:50:23;4.33;;;3.10;;
3547;SDS011;1788;49.400;11.092;2023-04-15T08:52:52;5.20;;;2.70;;
3547;SDS011;1788;49.400;11.092;2023-04-15T08:55:16;4.17;;;2.63;;
3547;SDS011;1788;49.400;11.092;2023-04-15T08:57:43;2.33;;;2.13;;
3547;SDS011;1788;49.400;11.092;2023-04-15T09:00:10;2.40;;;2.20;;
3547;SDS011;1788;49.400;11.092;2023-04-15T09:02:36;2.53;;;2.33;;
3547;SDS011;1788;49.400;11.092;2023-04-15T09:05:04;1.90;;;1.80;;
3547;SDS011;1788;49.400;11.092;2023-04-15T09:07:32;2.20;;;2.03;;
3547;SDS011;1788;49.400;11.092;2023-04-15T09:09:57;1.73;;;1.60;;
3547;SDS011;1788;49.400;11.092;2023-04-15T09:12:24;2.07;;;1.93;;
3547;SDS011;1788;49.400;11.092;2023-04-15T09:14:50;3.20;;;2.00;;
3547;SDS011;1788;49.400;11.092;2023-04-15T09:17:17;2.37;;;2.17;;
3547;SDS011;1788;49.400;11.092;2023-04-15T09:19:43;2.60;;;2.40;;
3547;SDS011;1788;49.400;11.092;2023-04-15T09:22:10;2.43;;;1.80;;
3547;SDS011;1788;49.400;11.092;2023-04-15T09:24:37;2.23;;;2.00;;
3547;SDS011;1788;49.400;11.092;2023-04-15T09:27:05;2.10;;;1.97;;
3547;SDS011;1788;49.400;11.092;2023-04-15T09:29:31;2.00;;;1.90;;
3547;SDS011;1788;49.400;11.092;2023-04-15T09:34:33;1.73;;;1.67;;
3547;SDS011;1788;49.400;11.092;2023-04-15T09:36:54;1.93;;;1.83;;
3547;SDS011;1788;49.400;11.092;2023-04-15T09:39:19;2.50;;;2.07;;
3547;SDS011;1788;49.400;11.092;2023-04-15T09:41:45;1.93;;;1.80;;
3547;SDS011;1788;49.400;11.092;2023-04-15T09:51:33;3.73;;;2.70;;
3547;SDS011;1788;49.400;11.092;2023-04-15T09:53:58;2.43;;;2.27;;
3547;SDS011;1788;49.400;11.092;2023-04-15T09:56:31;2.87;;;2.53;;
3547;SDS011;1788;49.400;11.092;2023-04-15T09:58:55;2.43;;;2.23;;
3547;SDS011;1788;49.400;11.092;2023-04-15T10:01:19;2.57;;;2.40;;
3547;SDS011;1788;49.400;11.092;2023-04-15T10:03:45;2.63;;;2.27;;
3547;SDS011;1788;49.400;11.092;2023-04-15T10:06:12;2.60;;;2.20;;
3547;SDS011;1788;49.400;11.092;2023-04-15T10:08:39;2.23;;;2.00;;
3547;SDS011;1788;49.400;11.092;2023-04-15T10:11:05;2.30;;;2.10;;
3547;SDS011;1788;49.400;11.092;2023-04-15T10:13:32;2.33;;;2.20;;
3547;SDS011;1788;49.400;11.092;2023-04-15T10:18:26;1.80;;;1.70;;
3547;SDS011;1788;49.400;11.092;2023-04-15T10:20:53;2.23;;;2.03;;
3547;SDS011;1788;49.400;11.092;2023-04-15T10:23:21;3.40;;;2.20;;
3547;SDS011;1788;49.400;11.092;2023-04-15T10:25:48;3.13;;;2.00;;
3547;SDS011;1788;49.400;11.092;2023-04-15T10:28:14;2.00;;;1.90;;
3547;SDS011;1788;49.400;11.092;2023-04-15T10:30:40;2.30;;;2.10;;
3547;SDS011;1788;49.400;11.092;2023-04-15T10:33:06;3.37;;;2.33;;
3547;SDS011;1788;49.400;11.092;2023-04-15T10:35:33;2.93;;;2.73;;
3547;SDS011;1788;49.400;11.092;2023-04-15T10:38:00;2.03;;;1.90;;
3547;SDS011;1788;49.400;11.092;2023-04-15T10:40:28;3.43;;;2.07;;
3547;SDS011;1788;49.400;11.092;2023-04-15T10:42:54;2.70;;;2.03;;
3547;SDS011;1788;49.400;11.092;2023-04-15T10:45:20;2.27;;;2.10;;
3547;SDS011;1788;49.400;11.092;2023-04-15T10:50:13;3.80;;;2.17;;
3547;SDS011;1788;49.400;11.092;2023-04-15T10:52:40;2.37;;;2.13;;
3547;SDS011;1788;49.400;11.092;2023-04-15T10:57:34;3.07;;;2.53;;
3547;SDS011;1788;49.400;11.092;2023-04-15T11:04:54;2.93;;;2.77;;
3547;SDS011;1788;49.400;11.092;2023-04-15T11:09:46;2.37;;;2.10;;
3547;SDS011;1788;49.400;11.092;2023-04-15T11:12:14;4.37;;;2.93;;
3547;SDS011;1788;49.400;11.092;2023-04-15T11:14:40;2.83;;;2.60;;
3547;SDS011;1788;49.400;11.092;2023-04-15T11:17:07;2.43;;;2.20;;
3547;SDS011;1788;49.400;11.092;2023-04-15T11:22:08;5.23;;;3.47;;
3547;SDS011;1788;49.400;11.092;2023-04-15T11:24:27;3.10;;;2.93;;
3547;SDS011;1788;49.400;11.092;2023-04-15T11:29:20;2.00;;;1.87;;
3547;SDS011;1788;49.400;11.092;2023-04-15T11:31:48;2.70;;;2.47;;
3547;SDS011;1788;49.400;11.092;2023-04-15T11:34:21;2.23;;;2.03;;
3547;SDS011;1788;49.400;11.092;2023-04-15T11:36:42;3.60;;;2.30;;
3547;SDS011;1788;49.400;11.092;2023-04-15T11:39:08;3.20;;;2.50;;
3547;SDS011;1788;49.400;11.092;2023-04-15T11:41:35;2.37;;;2.13;;
3547;SDS011;1788;49.400;11.092;2023-04-15T11:44:14;3.47;;;2.73;;
3547;SDS011;1788;49.400;11.092;2023-04-15T11:46:29;2.97;;;2.47;;
3547;SDS011;1788;49.400;11.092;2023-04-15T11:48:56;3.13;;;2.93;;
3547;SDS011;1788;49.400;11.092;2023-04-15T11:51:23;4.03;;;2.90;;
3547;SDS011;1788;49.400;11.092;2023-04-15T11:53:50;7.57;;;5.43;;
3547;SDS011;1788;49.400;11.092;2023-04-15T11:56:17;5.00;;;3.77;;
3547;SDS011;1788;49.400;11.092;2023-04-15T11:58:43;2.63;;;2.47;;
3547;SDS011;1788;49.400;11.092;2023-04-15T12:01:10;4.30;;;2.67;;
3547;SDS011;1788;49.400;11.092;2023-04-15T12:03:38;3.30;;;2.73;;
3547;SDS011;1788;49.400;11.092;2023-04-15T12:06:05;3.07;;;2.93;;
3547;SDS011;1788;49.400;11.092;2023-04-15T12:10:58;2.27;;;2.07;;
3547;SDS011;1788;49.400;11.092;2023-04-15T12:13:26;2.37;;;2.17;;
3547;SDS011;1788;49.400;11.092;2023-04-15T12:15:51;3.50;;;2.83;;
3547;SDS011;1788;49.400;11.092;2023-04-15T12:18:17;2.07;;;1.87;;
3547;SDS011;1788;49.400;11.092;2023-04-15T12:20:44;2.73;;;2.50;;
3547;SDS011;1788;49.400;11.092;2023-04-15T12:23:11;2.70;;;2.57;;
3547;SDS011;1788;49.400;11.092;2023-04-15T12:25:37;4.77;;;2.90;;
3547;SDS011;1788;49.400;11.092;2023-04-15T12:30:31;2.77;;;2.50;;
3547;SDS011;1788;49.400;11.092;2023-04-15T12:32:58;2.67;;;2.47;;
3547;SDS011;1788;49.400;11.092;2023-04-15T12:35:25;2.97;;;2.63;;
3547;SDS011;1788;49.400;11.092;2023-04-15T12:37:51;2.20;;;2.00;;
3547;SDS011;1788;49.400;11.092;2023-04-15T12:40:18;2.20;;;2.07;;
3547;SDS011;1788;49.400;11.092;2023-04-15T12:42:44;2.60;;;2.40;;
3547;SDS011;1788;49.400;11.092;2023-04-15T12:45:11;2.97;;;2.83;;
3547;SDS011;1788;49.400;11.092;2023-04-15T12:47:38;3.07;;;2.87;;
3547;SDS011;1788;49.400;11.092;2023-04-15T12:50:05;2.83;;;2.63;;
3547;SDS011;1788;49.400;11.092;2023-04-15T12:52:32;4.07;;;3.87;;
3547;SDS011;1788;49.400;11.092;2023-04-15T12:55:00;4.17;;;2.97;;
3547;SDS011;1788;49.400;11.092;2023-04-15T12:57:26;3.63;;;3.43;;
3547;SDS011;1788;49.400;11.092;2023-04-15T12:59:53;3.13;;;2.93;;
3547;SDS011;1788;49.400;11.092;2023-04-15T13:02:20;4.27;;;2.70;;
3547;SDS011;1788;49.400;11.092;2023-04-15T13:04:47;2.77;;;2.57;;
3547;SDS011;1788;49.400;11.092;2023-04-15T13:07:14;2.97;;;2.53;;
3547;SDS011;1788;49.400;11.092;2023-04-15T13:09:40;2.57;;;2.33;;
3547;SDS011;1788;49.400;11.092;2023-04-15T13:12:07;2.40;;;2.20;;
3547;SDS011;1788;49.400;11.092;2023-04-15T13:14:34;2.80;;;2.60;;
3547;SDS011;1788;49.400;11.092;2023-04-15T13:17:00;2.97;;;2.77;;
3547;SDS011;1788;49.400;11.092;2023-04-15T13:19:28;2.40;;;2.20;;
3547;SDS011;1788;49.400;11.092;2023-04-15T13:21:54;3.50;;;2.60;;
3547;SDS011;1788;49.400;11.092;2023-04-15T13:24:21;3.17;;;3.00;;
3547;SDS011;1788;49.400;11.092;2023-04-15T13:26:48;2.83;;;2.63;;
3547;SDS011;1788;49.400;11.092;2023-04-15T13:29:15;2.80;;;2.60;;
3547;SDS011;1788;49.400;11.092;2023-04-15T13:31:41;2.90;;;2.37;;
3547;SDS011;1788;49.400;11.092;2023-04-15T13:34:09;3.50;;;3.40;;
3547;SDS011;1788;49.400;11.092;2023-04-15T13:36:35;4.00;;;3.30;;
3547;SDS011;1788;49.400;11.092;2023-04-15T13:39:02;3.47;;;2.40;;
3547;SDS011;1788;49.400;11.092;2023-04-15T13:41:28;2.73;;;2.57;;
3547;SDS011;1788;49.400;11.092;2023-04-15T13:43:55;2.57;;;2.20;;
3547;SDS011;1788;49.400;11.092;2023-04-15T13:46:22;6.10;;;4.73;;
3547;SDS011;1788;49.400;11.092;2023-04-15T13:48:48;5.60;;;3.90;;
3547;SDS011;1788;49.400;11.092;2023-04-15T13:51:15;7.83;;;4.80;;
3547;SDS011;1788;49.400;11.092;2023-04-15T13:53:42;3.37;;;3.07;;
3547;SDS011;1788;49.400;11.092;2023-04-15T13:56:09;2.40;;;2.20;;
3547;SDS011;1788;49.400;11.092;2023-04-15T13:58:36;1.97;;;1.87;;
3547;SDS011;1788;49.400;11.092;2023-04-15T14:01:03;2.80;;;2.40;;
3547;SDS011;1788;49.400;11.092;2023-04-15T14:03:29;2.87;;;2.43;;
3547;SDS011;1788;49.400;11.092;2023-04-15T14:05:56;2.80;;;2.60;;
3547;SDS011;1788;49.400;11.092;2023-04-15T14:08:23;3.47;;;2.80;;
3547;SDS011;1788;49.400;11.092;2023-04-15T14:10:49;2.53;;;2.33;;
3547;SDS011;1788;49.400;11.092;2023-04-15T14:13:17;2.63;;;2.30;;
3547;SDS011;1788;49.400;11.092;2023-04-15T14:15:43;2.57;;;2.37;;
3547;SDS011;1788;49.400;11.092;2023-04-15T14:18:11;2.63;;;2.43;;
3547;SDS011;1788;49.400;11.092;2023-04-15T14:20:37;2.77;;;2.63;;
3547;SDS011;1788;49.400;11.092;2023-04-15T14:23:04;2.87;;;2.67;;
3547;SDS011;1788;49.400;11.092;2023-04-15T14:25:31;2.80;;;2.63;;
3547;SDS011;1788;49.400;11.092;2023-04-15T14:27:57;2.93;;;2.73;;
3547;SDS011;1788;49.400;11.092;2023-04-15T14:30:25;3.13;;;2.93;;
3547;SDS011;1788;49.400;11.092;2023-04-15T14:32:51;2.63;;;2.43;;
3547;SDS011;1788;49.400;11.092;2023-04-15T14:35:18;4.77;;;3.27;;
3547;SDS011;1788;49.400;11.092;2023-04-15T14:37:46;4.87;;;3.80;;
3547;SDS011;1788;49.400;11.092;2023-04-15T14:40:12;6.30;;;4.37;;
3547;SDS011;1788;49.400;11.092;2023-04-15T14:42:39;6.33;;;4.60;;
3547;SDS011;1788;49.400;11.092;2023-04-15T14:45:06;5.60;;;4.03;;
3547;SDS011;1788;49.400;11.092;2023-04-15T14:47:33;3.90;;;3.57;;
3547;SDS011;1788;49.400;11.092;2023-04-15T14:50:00;3.23;;;3.10;;
3547;SDS011;1788;49.400;11.092;2023-04-15T14:52:27;4.23;;;3.70;;
3547;SDS011;1788;49.400;11.092;2023-04-15T14:54:54;4.33;;;3.63;;
3547;SDS011;1788;49.400;11.092;2023-04-15T14:57:21;3.77;;;3.30;;
3547;SDS011;1788;49.400;11.092;2023-04-15T14:59:54;3.03;;;2.83;;
3547;SDS011;1788;49.400;11.092;2023-04-15T15:02:21;4.47;;;2.70;;
3547;SDS011;1788;49.400;11.092;2023-04-15T15:04:47;2.40;;;2.20;;
3547;SDS011;1788;49.400;11.092;2023-04-15T15:07:14;3.13;;;2.20;;
3547;SDS011;1788;49.400;11.092;2023-04-15T15:09:40;6.97;;;4.20;;
3547;SDS011;1788;49.400;11.092;2023-04-15T15:12:08;3.53;;;3.23;;
3547;SDS011;1788;49.400;11.092;2023-04-15T15:14:34;3.67;;;3.03;;
3547;SDS011;1788;49.400;11.092;2023-04-15T15:17:02;3.17;;;2.97;;
3547;SDS011;1788;49.400;11.092;2023-04-15T15:19:28;3.27;;;3.00;;
3547;SDS011;1788;49.400;11.092;2023-04-15T15:21:55;4.63;;;3.10;;
3547;SDS011;1788;49.400;11.092;2023-04-15T15:24:22;5.93;;;3.43;;
3547;SDS011;1788;49.400;11.092;2023-04-15T15:26:49;7.23;;;3.43;;
3547;SDS011;1788;49.400;11.092;2023-04-15T15:29:15;5.77;;;4.00;;
3547;SDS011;1788;49.400;11.092;2023-04-15T15:31:42;5.90;;;4.57;;
3547;SDS011;1788;49.400;11.092;2023-04-15T15:34:09;4.90;;;3.73;;